Time;durP1;ratioP1;P1;durP2;ratioP2;P2;SDS_P1;SDS_P2;PMS_P1;PMS_P2;Temp;Humidity;BMP_temperature;BMP_pressure;BME280_temperature;BME280_humidity;BME280_pressure;Samples;Min_cycle;Max_cycle;Signal;HPM_P1;HPM_P2
2021/03/24 00:00:08;;;;;;;6.97;2.97;;;;;;;0.56;39.37;99102.59;10544848;28;20044;-52
2021/03/24 00:05:12;;;;;;;6.00;3.08;;;;;;;0.55;39.29;99119.00;10545148;28;20135;-54
2021/03/24 00:10:15;;;;;;;6.17;2.13;;;;;;;0.52;39.57;99117.41;10544418;28;20058;-55
2021/03/24 00:15:17;;;;;;;10.38;3.80;;;;;;;0.51;39.40;99117.50;10544461;28;20059;-51
2021/03/24 00:20:21;;;;;;;8.15;2.92;;;;;;;0.52;39.32;99117.41;10543809;28;20523;-52
2021/03/24 00:25:23;;;;;;;8.05;3.53;;;;;;;0.52;39.35;99119.16;10543519;28;20059;-52
2021/03/24 00:30:29;;;;;;;7.75;3.20;;;;;;;0.52;39.27;99117.41;10542146;28;20058;-52
2021/03/24 00:35:31;;;;;;;7.25;3.08;;;;;;;0.53;38.89;99113.09;10543377;28;20070;-55
2021/03/24 00:40:36;;;;;;;7.43;3.97;;;;;;;0.51;39.41;99101.97;10543277;28;20052;-52
2021/03/24 00:45:40;;;;;;;11.73;3.72;;;;;;;0.47;39.46;99108.25;10537195;28;20102;-56
2021/03/24 00:50:41;;;;;;;9.10;3.45;;;;;;;0.43;38.89;99113.56;10505511;28;20048;-59
2021/03/24 00:55:43;;;;;;;6.80;3.15;;;;;;;0.40;39.02;99113.75;10502216;28;20140;-52
2021/03/24 01:00:47;;;;;;;9.40;3.25;;;;;;;0.35;39.33;99115.72;10502975;28;20052;-52
2021/03/24 01:05:50;;;;;;;;;;;;;;;0.31;39.58;99118.53;10501334;28;20058;-51
2021/03/24 01:10:54;;;;;;;9.85;3.78;;;;;;;0.30;39.31;99122.03;10522024;28;19974;-53
2021/03/24 01:15:57;;;;;;;10.18;3.38;;;;;;;0.29;39.51;99131.56;10545203;28;20131;-53
2021/03/24 01:20:58;;;;;;;9.97;3.17;;;;;;;0.27;39.29;99137.72;10540694;28;20473;-52
2021/03/24 01:26:00;;;;;;;9.15;3.95;;;;;;;0.23;39.44;99137.03;10542046;28;20113;-52
2021/03/24 01:31:02;;;;;;;7.75;3.33;;;;;;;0.24;39.79;99141.28;10542205;28;20481;-54
2021/03/24 01:36:05;;;;;;;7.35;3.58;;;;;;;0.22;39.77;99150.91;10542497;28;20048;-56
2021/03/24 01:41:07;;;;;;;8.80;3.10;;;;;;;0.15;39.34;99155.53;10549802;28;20380;-52
2021/03/24 01:46:38;;;;;;;7.90;3.65;;;;;;;0.07;40.26;99162.03;10549710;28;20523;-52
2021/03/24 01:51:43;;;;;;;9.45;3.47;;;;;;;0.07;40.07;99162.03;10547269;28;20056;-52
2021/03/24 01:56:47;;;;;;;12.77;3.45;;;;;;;0.05;39.90;99163.84;10550631;28;20051;-55
2021/03/24 02:01:49;;;;;;;9.13;3.05;;;;;;;-0.01;40.33;99178.72;10550733;28;20048;-52
2021/03/24 02:06:59;;;;;;;9.85;3.78;;;;;;;-0.06;40.31;99172.97;10554585;28;20362;-55
2021/03/24 02:12:05;;;;;;;9.70;3.85;;;;;;;-0.06;40.65;99170.38;10551367;28;20044;-51
2021/03/24 02:17:08;;;;;;;10.27;4.32;;;;;;;-0.02;40.23;99164.16;10550097;28;20044;-52
2021/03/24 02:22:13;;;;;;;10.18;4.13;;;;;;;0.03;40.34;99163.06;10549115;28;20064;-52
2021/03/24 02:27:18;;;;;;;10.40;3.42;;;;;;;0.04;39.93;99175.09;10551888;28;20047;-59
2021/03/24 02:32:24;;;;;;;10.63;3.97;;;;;;;0.01;40.15;99183.00;10550506;28;20044;-55
2021/03/24 02:37:27;;;;;;;9.93;3.53;;;;;;;-0.10;40.27;99197.28;10548749;28;20128;-52
2021/03/24 02:42:30;;;;;;;5.97;2.40;;;;;;;-0.09;39.85;99193.78;10548539;28;20488;-52
2021/03/24 02:47:31;;;;;;;12.30;4.07;;;;;;;-0.04;39.94;99203.88;10549739;28;20286;-55
2021/03/24 02:52:34;;;;;;;10.40;4.45;;;;;;;-0.06;40.36;99203.97;10550509;28;20044;-52
2021/03/24 02:57:36;;;;;;;12.70;5.38;;;;;;;-0.07;39.57;99206.63;10549647;28;20040;-61
2021/03/24 03:02:40;;;;;;;10.55;3.72;;;;;;;-0.06;40.25;99214.31;10552221;28;20047;-51
2021/03/24 03:07:55;;;;;;;10.45;3.30;;;;;;;-0.06;39.83;99221.22;10547761;28;20047;-55
2021/03/24 03:13:03;;;;;;;8.30;3.65;;;;;;;-0.07;40.31;99210.03;10547402;28;20105;-52
2021/03/24 03:18:09;;;;;;;8.85;3.45;;;;;;;-0.04;40.10;99222.81;10546661;28;20040;-52
2021/03/24 03:23:14;;;;;;;13.13;3.42;;;;;;;0.03;39.93;99223.34;10548270;28;20441;-52
2021/03/24 03:28:19;;;;;;;6.75;3.15;;;;;;;0.07;40.02;99229.22;10548345;28;20052;-51
2021/03/24 03:33:25;;;;;;;6.70;2.55;;;;;;;0.17;40.19;99226.06;10546204;28;20059;-53
2021/03/24 03:38:31;;;;;;;8.30;2.58;;;;;;;1.17;41.59;99231.25;10545843;28;20472;-51
2021/03/24 03:43:34;;;;;;;9.18;3.63;;;;;;;2.68;41.13;99226.91;10544988;28;20043;-52
2021/03/24 03:48:36;;;;;;;9.40;3.85;;;;;;;4.27;40.35;99225.50;10545212;28;20043;-55
2021/03/24 03:53:43;;;;;;;7.70;3.65;;;;;;;6.04;38.99;99229.59;10544602;28;20044;-53
2021/03/24 03:58:54;;;;;;;12.93;4.13;;;;;;;7.56;37.45;99223.94;10544306;28;20366;-53
2021/03/24 04:03:58;;;;;;;10.75;3.80;;;;;;;9.04;36.08;99229.06;10543983;28;20043;-55
2021/03/24 04:09:01;;;;;;;10.20;4.40;;;;;;;10.58;34.96;99231.97;10544494;28;20051;-53
2021/03/24 04:14:07;;;;;;;9.07;4.13;;;;;;;12.22;33.17;99237.28;10543800;28;20062;-54
2021/03/24 04:19:10;;;;;;;11.30;5.07;;;;;;;14.07;31.85;99243.75;10546187;28;20487;-49
2021/03/24 04:24:16;;;;;;;7.80;3.88;;;;;;;15.63;29.67;99236.25;10542083;28;20048;-50
2021/03/24 04:29:23;;;;;;;7.65;3.72;;;;;;;17.09;27.85;99236.03;10542811;28;20043;-52
2021/03/24 04:34:25;;;;;;;8.05;3.60;;;;;;;18.56;26.48;99235.72;10540782;28;20059;-51
2021/03/24 04:39:34;;;;;;;6.43;3.50;;;;;;;19.76;24.35;99238.00;10543055;28;20052;-50
2021/03/24 04:44:39;;;;;;;8.40;3.70;;;;;;;20.19;23.75;99251.00;10543958;28;20047;-50
2021/03/24 04:49:46;;;;;;;7.28;2.90;;;;;;;21.89;22.10;99256.44;10542850;28;20040;-50
2021/03/24 04:54:50;;;;;;;8.30;3.42;;;;;;;23.57;20.59;99260.88;10544106;28;20040;-52
2021/03/24 05:00:00;;;;;;;6.50;3.45;;;;;;;24.22;18.92;99270.94;10545423;28;20143;-52
2021/03/24 05:05:08;;;;;;;9.43;3.67;;;;;;;25.70;17.87;99278.84;10561430;28;20040;-58
2021/03/24 05:10:13;;;;;;;7.38;3.25;;;;;;;27.32;16.45;99281.81;10546385;28;20044;-57
2021/03/24 05:15:21;;;;;;;18.27;4.45;;;;;;;28.74;15.32;99278.09;10571674;28;20099;-53
2021/03/24 05:20:28;;;;;;;11.13;3.78;;;;;;;29.95;14.33;99282.47;10558372;28;20482;-51
2021/03/24 05:25:35;;;;;;;11.15;4.10;;;;;;;30.96;13.46;99285.50;10547356;28;20060;-51
2021/03/24 05:30:41;;;;;;;12.73;4.40;;;;;;;31.87;12.52;99288.97;10547552;28;20469;-51
2021/03/24 05:35:50;;;;;;;14.52;3.78;;;;;;;32.68;11.73;99294.91;10540864;28;20465;-52
2021/03/24 05:41:02;;;;;;;11.48;3.70;;;;;;;33.05;11.12;99291.56;10542135;28;20135;-51
2021/03/24 05:46:20;;;;;;;8.10;3.90;;;;;;;33.89;10.20;99294.63;10504524;28;20056;-51
2021/03/24 05:51:31;;;;;;;9.30;4.13;;;;;;;34.64;9.70;99298.41;10498919;28;20448;-51
2021/03/24 05:57:02;;;;;;;8.25;3.83;;;;;;;35.20;9.38;99300.13;10499782;28;20044;-51
2021/03/24 06:02:10;;;;;;;13.55;4.65;;;;;;;34.74;9.60;99309.16;10498825;28;20110;-54
2021/03/24 06:07:44;;;;;;;15.52;5.63;;;;;;;34.31;9.26;99314.75;10502639;28;20147;-52
2021/03/24 06:13:11;;;;;;;12.43;5.35;;;;;;;35.34;8.77;99312.97;10503806;28;20070;-53
2021/03/24 06:18:52;;;;;;;15.68;4.95;;;;;;;36.74;8.18;99324.06;10499765;28;20037;-51
2021/03/24 06:24:30;;;;;;;11.27;4.70;;;;;;;37.52;7.79;99306.03;10466353;28;20056;-51
2021/03/24 06:29:45;;;;;;;10.57;4.47;;;;;;;38.82;7.04;99321.69;10506905;28;20417;-52
2021/03/24 06:35:04;;;;;;;12.27;4.50;;;;;;;39.05;6.36;99321.50;10508132;28;20052;-52
2021/03/24 06:40:26;;;;;;;13.80;4.75;;;;;;;38.86;6.33;99321.88;10508086;28;20051;-54
2021/03/24 06:45:42;;;;;;;8.52;4.75;;;;;;;39.40;6.09;99326.84;10510321;28;20385;-53
2021/03/24 06:51:22;;;;;;;11.13;4.80;;;;;;;40.68;5.59;99334.47;10519056;28;20492;-54
2021/03/24 06:57:01;;;;;;;13.18;4.78;;;;;;;41.45;5.26;99333.88;10482663;28;20069;-53
2021/03/24 07:02:24;;;;;;;7.43;2.90;;;;;;;41.80;4.41;99325.09;10504133;28;20059;-52
2021/03/24 07:07:42;;;;;;;7.72;3.53;;;;;;;42.07;4.52;99324.34;10520777;28;20037;-64
2021/03/24 07:13:12;;;;;;;7.90;2.90;;;;;;;42.86;4.15;99334.84;10521613;28;20074;-57
2021/03/24 07:18:44;;;;;;;4.80;2.53;;;;;;;43.75;3.74;99332.59;10513013;28;20079;-53
2021/03/24 07:24:05;;;;;;;7.38;3.00;;;;;;;44.10;3.35;99327.06;10516634;28;20068;-57
2021/03/24 07:29:17;;;;;;;5.95;3.10;;;;;;;44.27;3.38;99325.78;10504959;28;20048;-53
2021/03/24 07:34:39;;;;;;;5.85;3.05;;;;;;;45.09;2.63;99319.00;10504312;28;20173;-53
2021/03/24 07:40:06;;;;;;;8.35;4.25;;;;;;;44.74;3.04;99314.47;10503557;28;20481;-52
2021/03/24 07:45:42;;;;;;;9.98;4.20;;;;;;;44.22;2.94;99304.75;10505188;28;20156;-51
2021/03/24 07:50:51;;;;;;;12.35;3.85;;;;;;;44.73;2.66;99304.53;10509576;28;20104;-52
2021/03/24 07:56:02;;;;;;;15.25;3.17;;;;;;;45.80;2.07;99299.03;10504264;28;20448;-52
2021/03/24 08:01:16;;;;;;;6.68;2.75;;;;;;;46.60;1.68;99308.72;10503899;28;20059;-53
2021/03/24 08:06:28;;;;;;;6.30;2.90;;;;;;;47.65;1.76;99307.53;10503134;28;20048;-58
2021/03/24 08:11:36;;;;;;;8.40;3.28;;;;;;;48.67;1.41;99297.13;10513834;28;20485;-51
2021/03/24 08:17:14;;;;;;;8.45;3.47;;;;;;;48.49;1.25;99302.69;10502385;28;20052;-53
2021/03/24 08:22:28;;;;;;;10.57;3.20;;;;;;;48.28;1.15;99295.09;10488653;28;20426;-53
2021/03/24 08:27:37;;;;;;;8.65;3.50;;;;;;;47.70;1.48;99301.63;10501480;28;20392;-53
2021/03/24 08:33:17;;;;;;;7.47;3.08;;;;;;;46.94;1.52;99305.84;10502055;28;20117;-52
2021/03/24 08:38:45;;;;;;;8.13;3.07;;;;;;;48.32;0.89;99298.69;10501057;28;20052;-54
2021/03/24 08:43:58;;;;;;;7.85;3.45;;;;;;;48.91;1.02;99303.16;10501174;28;20071;-53
2021/03/24 08:49:04;;;;;;;5.90;2.83;;;;;;;49.44;0.40;99308.66;10506573;28;20060;-58
2021/03/24 08:55:00;;;;;;;7.05;3.20;;;;;;;50.14;0.55;99310.84;10502227;28;20059;-52
2021/03/24 09:00:14;;;;;;;14.73;3.38;;;;;;;48.73;0.33;99298.34;10500544;28;20378;-53
2021/03/24 09:05:26;;;;;;;5.50;2.88;;;;;;;48.85;0.34;99291.59;10500945;28;20079;-52
2021/03/24 09:10:47;;;;;;;9.93;3.13;;;;;;;49.51;0.55;99293.88;10501392;28;20056;-52
2021/03/24 09:16:17;;;;;;;8.85;3.35;;;;;;;49.14;0.15;99289.56;10502386;28;20044;-52
2021/03/24 09:21:23;;;;;;;6.30;2.80;;;;;;;47.78;0.55;99292.09;10520403;28;20052;-51
2021/03/24 09:27:06;;;;;;;9.25;3.13;;;;;;;46.30;1.02;99294.91;10507226;28;20106;-52
2021/03/24 09:32:31;;;;;;;6.65;3.05;;;;;;;45.85;0.71;99279.25;10500464;28;20060;-52
2021/03/24 09:37:37;;;;;;;7.07;3.10;;;;;;;45.55;1.08;99276.50;10500247;28;20125;-52
2021/03/24 09:42:45;;;;;;;11.95;3.63;;;;;;;44.79;0.87;99264.22;10501345;28;20109;-52
2021/03/24 09:47:51;;;;;;;7.25;3.05;;;;;;;42.28;1.65;99263.41;10500501;28;20056;-52
2021/03/24 09:52:58;;;;;;;9.02;2.97;;;;;;;40.59;1.77;99275.88;10509985;28;20048;-53
2021/03/24 09:58:51;;;;;;;10.70;2.75;;;;;;;36.02;3.29;99276.50;10499860;28;20055;-51
2021/03/24 10:04:00;;;;;;;7.07;2.50;;;;;;;29.45;5.15;99272.28;10508410;28;20070;-51
2021/03/24 10:09:08;;;;;;;9.27;3.47;;;;;;;25.33;6.89;99267.63;10507663;28;20348;-50
2021/03/24 10:14:13;;;;;;;8.55;2.60;;;;;;;22.89;8.02;99275.22;10506762;28;20052;-51
2021/03/24 10:19:21;;;;;;;8.43;3.10;;;;;;;21.17;8.38;99277.06;10506975;28;20045;-52
2021/03/24 10:24:28;;;;;;;9.95;2.42;;;;;;;19.86;9.15;99266.13;10506603;28;20064;-49
2021/03/24 10:29:41;;;;;;;9.38;3.03;;;;;;;18.48;10.02;99268.63;10506283;28;20572;-51
2021/03/24 10:34:46;;;;;;;7.10;2.25;;;;;;;17.46;10.36;99276.78;10505363;28;20472;-49
2021/03/24 10:39:56;;;;;;;8.00;2.28;;;;;;;16.52;11.20;99285.19;10505765;28;20049;-49
2021/03/24 10:45:03;;;;;;;6.10;2.22;;;;;;;15.74;11.51;99280.94;10506171;28;20139;-51
2021/03/24 10:50:26;;;;;;;5.45;1.85;;;;;;;14.89;12.12;99278.09;10505401;28;20388;-49
2021/03/24 10:55:30;;;;;;;7.40;2.63;;;;;;;14.10;12.55;99280.44;10505573;28;20040;-49
2021/03/24 11:00:35;;;;;;;4.30;1.88;;;;;;;13.63;13.09;99266.94;10502906;28;20496;-49
2021/03/24 11:05:43;;;;;;;7.78;2.70;;;;;;;13.28;13.42;99269.63;10503588;28;20037;-50
2021/03/24 11:10:49;;;;;;;6.07;2.05;;;;;;;12.98;13.74;99267.47;10504653;28;20406;-50
2021/03/24 11:16:04;;;;;;;6.47;1.83;;;;;;;12.71;13.74;99266.63;10508385;28;20040;-50
2021/03/24 11:21:20;;;;;;;6.15;2.78;;;;;;;12.34;14.58;99256.31;10504080;28;20078;-49
2021/03/24 11:26:44;;;;;;;7.15;2.60;;;;;;;12.32;14.71;99255.66;10510243;28;20492;-49
2021/03/24 11:32:06;;;;;;;5.10;1.73;;;;;;;12.39;14.84;99251.44;10505329;28;20044;-50
2021/03/24 11:37:34;;;;;;;5.45;1.42;;;;;;;12.15;14.68;99249.41;10502791;28;20044;-50
2021/03/24 11:42:37;;;;;;;6.60;1.67;;;;;;;12.08;14.72;99248.38;10508607;28;20055;-51
2021/03/24 11:48:00;;;;;;;6.78;2.00;;;;;;;11.78;15.27;99255.63;10505067;28;20393;-50
2021/03/24 11:53:13;;;;;;;5.18;1.60;;;;;;;11.53;15.26;99249.28;10509194;28;20132;-50
2021/03/24 11:58:32;;;;;;;4.88;1.85;;;;;;;11.64;15.29;99256.16;10502808;28;20245;-48
2021/03/24 12:04:01;;;;;;;9.05;2.10;;;;;;;11.76;15.39;99254.97;10501250;28;20101;-50
2021/03/24 12:09:10;;;;;;;8.15;2.22;;;;;;;11.62;15.63;99248.41;10500546;28;20109;-51
2021/03/24 12:14:18;;;;;;;7.10;1.95;;;;;;;11.44;15.79;99251.00;10500395;28;20484;-48
2021/03/24 12:19:33;;;;;;;5.43;1.70;;;;;;;11.18;16.03;99247.41;10501608;28;20055;-52
2021/03/24 12:24:37;;;;;;;;;;;;;;;11.11;15.71;99248.94;10501586;28;20166;-49
2021/03/24 12:29:40;;;;;;;6.63;2.10;;;;;;;11.09;15.75;99243.03;10501519;28;19924;-50
2021/03/24 12:34:45;;;;;;;9.53;1.63;;;;;;;11.09;16.02;99235.13;10500695;28;20048;-50
2021/03/24 12:39:50;;;;;;;4.47;1.73;;;;;;;11.03;16.22;99233.91;10500829;28;20051;-52
2021/03/24 12:44:52;;;;;;;4.72;1.52;;;;;;;10.90;16.03;99226.34;10501567;28;20048;-48
2021/03/24 12:50:20;;;;;;;8.15;2.17;;;;;;;10.84;16.43;99221.66;10501524;28;20464;-50
2021/03/24 12:55:23;;;;;;;4.93;1.83;;;;;;;10.88;16.11;99217.75;10500540;28;20051;-49
2021/03/24 13:00:43;;;;;;;5.07;1.67;;;;;;;10.75;16.66;99207.56;10506858;28;20070;-49
2021/03/24 13:05:59;;;;;;;7.93;2.65;;;;;;;10.73;16.70;99200.78;10503011;28;20097;-50
2021/03/24 13:11:11;;;;;;;5.03;2.13;;;;;;;10.79;16.74;99202.84;10504355;28;20067;-50
2021/03/24 13:16:20;;;;;;;7.97;1.63;;;;;;;10.54;16.95;99209.56;10523002;28;20048;-56
2021/03/24 13:21:32;;;;;;;4.95;1.30;;;;;;;10.41;16.99;99195.94;10503963;28;20052;-50
2021/03/24 13:26:36;;;;;;;6.40;1.67;;;;;;;10.42;17.04;99195.78;10513015;28;20052;-50
2021/03/24 13:31:42;;;;;;;11.32;2.20;;;;;;;10.37;16.90;99203.25;10513463;28;20366;-48
2021/03/24 13:36:49;;;;;;;7.80;1.80;;;;;;;10.28;17.42;99193.56;10516118;28;20531;-56
2021/03/24 13:41:55;;;;;;;4.70;1.70;;;;;;;10.11;17.66;99198.56;10514957;28;20052;-50
2021/03/24 13:47:03;;;;;;;4.80;1.60;;;;;;;10.02;17.64;99196.75;10515981;28;20052;-49
2021/03/24 13:52:18;;;;;;;6.65;1.50;;;;;;;9.94;17.74;99196.63;10518085;28;20425;-48
2021/03/24 13:57:31;;;;;;;5.80;1.60;;;;;;;9.94;17.68;99191.38;10514230;28;20465;-49
2021/03/24 14:02:47;;;;;;;4.15;1.45;;;;;;;9.94;17.96;99185.28;10513158;28;20078;-50
2021/03/24 14:08:11;;;;;;;4.57;1.40;;;;;;;9.94;17.66;99180.88;10513661;28;20048;-51
2021/03/24 14:13:34;;;;;;;7.07;1.58;;;;;;;9.90;17.97;99176.88;10513841;28;20052;-51
2021/03/24 14:18:49;;;;;;;4.15;1.48;;;;;;;9.72;18.01;99170.66;10513315;28;20044;-49
2021/03/24 14:24:11;;;;;;;8.05;2.25;;;;;;;9.59;18.13;99169.13;10513139;28;20103;-49
2021/03/24 14:29:34;;;;;;;6.45;1.80;;;;;;;9.52;18.40;99175.91;10514164;28;20047;-51
2021/03/24 14:34:52;;;;;;;4.65;1.63;;;;;;;9.55;18.39;99165.16;10512800;28;20078;-49
2021/03/24 14:40:02;;;;;;;2.95;1.13;;;;;;;9.76;18.32;99161.53;10517992;28;20067;-52
2021/03/24 14:45:41;;;;;;;5.53;1.80;;;;;;;9.90;18.25;99163.75;10511684;28;20114;-49
2021/03/24 14:50:53;;;;;;;5.85;2.10;;;;;;;9.83;18.54;99162.66;10508245;28;20091;-51
2021/03/24 14:55:59;;;;;;;7.18;2.17;;;;;;;9.77;18.46;99164.03;10507264;28;20451;-61
2021/03/24 15:01:12;;;;;;;5.38;1.70;;;;;;;9.72;18.77;99160.16;10510025;28;20092;-48
2021/03/24 15:06:29;;;;;;;5.78;1.98;;;;;;;9.60;18.85;99157.66;10505488;28;20452;-49
2021/03/24 15:11:38;;;;;;;6.20;2.00;;;;;;;9.43;18.90;99153.13;10509114;28;20412;-50
2021/03/24 15:16:48;;;;;;;5.50;2.50;;;;;;;9.26;19.03;99149.34;10509331;28;20426;-49
2021/03/24 15:21:57;;;;;;;5.57;1.67;;;;;;;9.17;19.07;99151.00;10517600;28;20074;-54
2021/03/24 15:27:07;;;;;;;6.10;2.55;;;;;;;9.13;19.22;99154.84;10508320;28;20047;-50
2021/03/24 15:32:18;;;;;;;5.75;1.77;;;;;;;9.02;19.22;99157.63;10504895;28;20055;-49
2021/03/24 15:37:36;;;;;;;8.27;2.63;;;;;;;8.79;19.52;99150.91;10503496;28;20040;-50
2021/03/24 15:42:49;;;;;;;6.57;1.95;;;;;;;8.65;19.62;99150.31;10504835;28;20135;-50
2021/03/24 15:47:52;;;;;;;6.22;1.95;;;;;;;8.49;19.56;99150.78;10503976;28;20056;-50
2021/03/24 15:53:10;;;;;;;4.88;1.98;;;;;;;8.34;20.04;99144.19;10511235;28;20048;-50
2021/03/24 15:58:38;;;;;;;5.40;1.98;;;;;;;8.22;20.33;99156.56;10505917;28;20036;-50
2021/03/24 16:03:59;;;;;;;7.15;1.85;;;;;;;8.12;20.21;99158.25;10470685;28;20052;-48
2021/03/24 16:09:15;;;;;;;8.55;2.38;;;;;;;8.03;20.10;99156.41;10503935;28;20479;-49
2021/03/24 16:14:33;;;;;;;6.40;2.15;;;;;;;7.98;20.69;99163.84;10502949;28;20045;-51
2021/03/24 16:19:48;;;;;;;10.85;2.75;;;;;;;7.93;20.75;99166.00;10503529;28;20522;-49
2021/03/24 16:24:59;;;;;;;5.82;2.13;;;;;;;7.87;20.77;99162.09;10507270;28;20063;-51
2021/03/24 16:30:05;;;;;;;6.60;2.30;;;;;;;7.81;20.91;99166.03;10512861;28;20041;-50
2021/03/24 16:35:54;;;;;;;10.23;2.88;;;;;;;7.73;21.26;99157.19;10501601;28;20044;-50
2021/03/24 16:41:10;;;;;;;10.68;3.33;;;;;;;7.66;21.13;99148.97;10432596;28;20072;-49
2021/03/24 16:46:55;;;;;;;7.10;2.47;;;;;;;7.51;21.59;99139.78;10502088;28;20056;-49
2021/03/24 16:52:27;;;;;;;7.90;2.67;;;;;;;7.45;21.65;99138.50;10501792;28;20055;-50
2021/03/24 16:57:43;;;;;;;7.63;2.70;;;;;;;7.38;22.00;99145.16;10501479;28;20044;-49
2021/03/24 17:03:05;;;;;;;13.80;2.33;;;;;;;7.39;21.92;99149.47;10504375;28;20067;-49
2021/03/24 17:08:15;;;;;;;6.30;2.72;;;;;;;7.35;22.03;99148.84;10502091;28;20043;-50
2021/03/24 17:13:33;;;;;;;7.03;3.22;;;;;;;7.28;22.40;99147.69;10502584;28;20044;-49
2021/03/24 17:18:44;;;;;;;10.80;3.35;;;;;;;7.20;22.36;99139.63;10500110;28;20215;-50
2021/03/24 17:23:50;;;;;;;11.82;3.20;;;;;;;7.12;22.45;99149.91;10502565;28;20063;-49
2021/03/24 17:28:54;;;;;;;9.35;3.53;;;;;;;7.11;22.59;99154.28;10502927;28;20044;-48
2021/03/24 17:34:01;;;;;;;11.88;4.30;;;;;;;7.11;22.85;99163.91;10508128;28;20568;-52
2021/03/24 17:39:12;;;;;;;7.90;3.13;;;;;;;7.07;22.80;99155.47;10501068;28;20106;-47
2021/03/24 17:44:21;;;;;;;7.03;2.47;;;;;;;7.07;22.67;99159.88;10503756;28;20120;-48
2021/03/24 17:49:28;;;;;;;8.77;2.95;;;;;;;7.01;23.15;99168.19;10502915;28;20049;-48
2021/03/24 17:54:41;;;;;;;6.70;2.83;;;;;;;6.97;22.93;99170.22;10504872;28;20041;-57
2021/03/24 18:00:04;;;;;;;8.95;3.17;;;;;;;6.94;23.12;99159.19;10500343;28;20104;-48
2021/03/24 18:05:22;;;;;;;12.00;3.10;;;;;;;6.87;23.15;99162.28;10491131;28;20084;-50
2021/03/24 18:10:33;;;;;;;10.65;2.60;;;;;;;6.83;23.22;99158.22;10500804;28;20049;-47
2021/03/24 18:15:42;;;;;;;10.52;2.47;;;;;;;6.74;23.32;99164.16;10500381;28;20118;-50
2021/03/24 18:20:47;;;;;;;7.25;2.22;;;;;;;6.73;23.43;99172.97;10501425;28;20052;-51
2021/03/24 18:25:59;;;;;;;6.90;2.38;;;;;;;6.74;23.57;99179.03;10507607;28;20060;-50
2021/03/24 18:31:07;;;;;;;9.50;2.92;;;;;;;6.75;23.38;99178.09;10506195;28;20101;-51
2021/03/24 18:36:14;;;;;;;10.15;3.28;;;;;;;6.68;23.64;99172.47;10506311;28;20381;-51
2021/03/24 18:41:19;;;;;;;9.98;3.70;;;;;;;6.67;23.63;99182.09;10508051;28;20151;-54
2021/03/24 18:46:21;;;;;;;9.98;3.25;;;;;;;6.68;23.59;99175.97;10507342;28;20488;-50
2021/03/24 18:51:29;;;;;;;8.52;2.78;;;;;;;6.67;23.42;99174.28;10506087;28;20048;-50
2021/03/24 18:56:42;;;;;;;9.93;3.55;;;;;;;6.64;23.60;99184.13;10506030;28;20072;-50
2021/03/24 19:01:46;;;;;;;11.15;2.97;;;;;;;6.61;23.51;99184.38;10507297;28;20060;-52
2021/03/24 19:06:50;;;;;;;10.00;3.75;;;;;;;6.57;23.60;99191.59;10505596;28;20426;-52
2021/03/24 19:11:53;;;;;;;12.80;4.38;;;;;;;6.51;23.90;99188.66;10505322;28;20048;-54
2021/03/24 19:16:56;;;;;;;14.13;4.37;;;;;;;6.41;23.82;99191.13;10504554;28;20056;-50
2021/03/24 19:21:59;;;;;;;13.55;4.55;;;;;;;6.37;23.92;99192.28;10503850;28;20060;-51
2021/03/24 19:27:23;;;;;;;10.97;3.30;;;;;;;6.27;24.58;99186.94;10504947;28;20040;-51
2021/03/24 19:32:30;;;;;;;11.27;5.57;;;;;;;6.18;24.53;99179.81;10502907;28;20068;-51
2021/03/24 19:37:33;;;;;;;10.68;3.65;;;;;;;6.16;24.63;99179.94;10508759;28;20051;-50
2021/03/24 19:42:35;;;;;;;10.77;4.00;;;;;;;6.11;24.42;99182.03;10507127;28;20044;-58
2021/03/24 19:47:43;;;;;;;7.97;3.35;;;;;;;6.12;24.69;99177.66;10503943;28;20056;-50
2021/03/24 19:52:45;;;;;;;10.50;3.78;;;;;;;6.16;24.44;99179.09;10507710;28;20064;-51
2021/03/24 19:57:52;;;;;;;9.63;3.47;;;;;;;6.15;24.54;99177.41;10505439;28;20036;-51
2021/03/24 20:03:15;;;;;;;9.90;3.75;;;;;;;6.13;24.57;99174.13;10502643;28;20060;-50
2021/03/24 20:08:36;;;;;;;10.88;4.25;;;;;;;6.07;24.98;99170.19;10502120;28;20071;-50
2021/03/24 20:13:46;;;;;;;8.80;4.00;;;;;;;6.05;24.69;99166.84;10502600;28;20044;-52
2021/03/24 20:18:50;;;;;;;10.85;4.10;;;;;;;5.99;24.99;99183.78;10506803;28;20393;-54
2021/03/24 20:23:53;;;;;;;12.68;4.22;;;;;;;5.91;25.08;99169.63;10505111;28;20386;-51
2021/03/24 20:28:56;;;;;;;13.80;4.18;;;;;;;5.84;25.45;99171.03;10507021;28;20101;-50
2021/03/24 20:34:02;;;;;;;13.23;4.00;;;;;;;5.76;25.25;99171.59;10500428;28;20110;-52
2021/03/24 20:39:13;;;;;;;9.50;3.15;;;;;;;5.78;25.32;99167.09;10501296;28;20083;-51
2021/03/24 20:44:19;;;;;;;8.15;3.28;;;;;;;5.77;25.39;99168.88;10501925;28;20236;-58
2021/03/24 20:49:27;;;;;;;11.88;4.63;;;;;;;5.77;25.82;99168.03;10503542;28;20169;-51
2021/03/24 20:54:29;;;;;;;9.18;3.50;;;;;;;5.71;25.88;99164.09;10501365;28;20048;-50
2021/03/24 20:59:30;;;;;;;8.82;2.90;;;;;;;5.65;25.99;99164.56;10500627;28;20055;-51
2021/03/24 21:04:33;;;;;;;9.48;3.42;;;;;;;5.66;25.94;99165.38;10500776;28;20063;-50
2021/03/24 21:09:34;;;;;;;11.77;3.88;;;;;;;5.68;25.88;99168.72;10500122;28;20469;-52
2021/03/24 21:14:36;;;;;;;11.75;4.35;;;;;;;5.64;25.47;99169.91;10500511;28;20045;-51
2021/03/24 21:19:41;;;;;;;11.52;4.50;;;;;;;5.60;25.99;99168.44;10500636;28;20060;-50
2021/03/24 21:24:42;;;;;;;10.02;4.32;;;;;;;5.58;25.79;99167.75;10500213;28;20049;-51
2021/03/24 21:29:44;;;;;;;12.50;4.63;;;;;;;5.57;25.65;99163.44;10500074;28;20444;-51
2021/03/24 21:34:47;;;;;;;12.63;4.07;;;;;;;5.46;25.96;99165.06;10499171;28;20527;-51
2021/03/24 21:39:50;;;;;;;9.55;3.92;;;;;;;5.39;25.96;99160.41;10500810;28;20048;-51
2021/03/24 21:44:52;;;;;;;9.53;3.77;;;;;;;5.25;26.30;99166.63;10499719;28;20075;-50
2021/03/24 21:49:55;;;;;;;6.80;2.78;;;;;;;5.16;26.75;99159.47;10499332;28;20052;-51
2021/03/24 21:54:56;;;;;;;16.97;4.10;;;;;;;5.20;26.79;99151.34;10499904;28;20055;-53
2021/03/24 22:00:02;;;;;;;10.38;3.42;;;;;;;5.35;26.81;99166.78;10508704;28;20059;-52
2021/03/24 22:05:12;;;;;;;8.85;3.25;;;;;;;5.50;26.95;99161.28;10509268;28;20056;-51
2021/03/24 22:10:17;;;;;;;12.20;4.30;;;;;;;5.64;26.62;99162.91;10509711;28;20079;-50
2021/03/24 22:15:23;;;;;;;9.65;3.72;;;;;;;5.80;26.65;99162.59;10507377;28;20489;-50
2021/03/24 22:20:28;;;;;;;9.35;3.42;;;;;;;5.89;26.52;99163.69;10507408;28;20052;-52
2021/03/24 22:25:31;;;;;;;12.18;4.28;;;;;;;5.98;26.58;99150.00;10508058;28;20056;-61
2021/03/24 22:30:41;;;;;;;10.02;4.43;;;;;;;5.93;26.65;99142.50;10508973;28;20470;-52
2021/03/24 22:35:51;;;;;;;9.98;4.00;;;;;;;5.93;26.38;99134.69;10506969;28;20102;-55
2021/03/24 22:40:53;;;;;;;10.48;4.03;;;;;;;5.97;26.68;99138.75;10505641;28;20147;-51
2021/03/24 22:45:55;;;;;;;7.72;3.15;;;;;;;6.02;26.97;99137.56;10505911;28;20053;-52
2021/03/24 22:50:59;;;;;;;8.95;3.35;;;;;;;6.05;26.69;99132.09;10505535;28;20052;-51
2021/03/24 22:56:07;;;;;;;11.43;4.95;;;;;;;6.07;27.05;99127.59;10505447;28;20059;-51
2021/03/24 23:01:14;;;;;;;11.40;4.30;;;;;;;6.10;26.75;99127.38;10505680;28;20075;-51
2021/03/24 23:06:18;;;;;;;8.70;3.58;;;;;;;6.05;26.98;99137.31;10505214;28;20049;-52
2021/03/24 23:11:24;;;;;;;11.48;4.63;;;;;;;6.11;27.11;99129.03;10505631;28;20049;-51
2021/03/24 23:16:31;;;;;;;8.15;4.35;;;;;;;6.10;26.89;99122.97;10506525;28;20044;-55
2021/03/24 23:21:35;;;;;;;11.82;3.70;;;;;;;6.06;27.08;99113.69;10508191;28;20064;-50
2021/03/24 23:26:40;;;;;;;9.25;3.67;;;;;;;6.16;27.03;99108.66;10504537;28;20473;-51
2021/03/24 23:31:45;;;;;;;10.27;3.83;;;;;;;6.13;27.11;99106.28;10504253;28;20060;-56
2021/03/24 23:36:48;;;;;;;8.70;3.78;;;;;;;6.09;27.09;99091.78;10506918;28;20101;-50
2021/03/24 23:41:50;;;;;;;9.87;3.60;;;;;;;6.09;27.17;99099.59;10503808;28;20489;-51
2021/03/24 23:46:52;;;;;;;6.72;3.00;;;;;;;6.09;27.33;99095.22;10503634;28;20041;-51
2021/03/24 23:51:55;;;;;;;6.75;2.83;;;;;;;6.06;27.28;99099.84;10502161;28;20052;-53
2021/03/24 23:56:56;;;;;;;8.82;3.67;;;;;;;6.15;27.22;99091.31;10503907;28;20040;-50
